createdAt,value
2018-04-01T00:00:57.123Z,965.9
2018-04-01T00:01:58.392Z,965.8
2018-04-01T00:03:00.775Z,965.9
2018-04-01T00:04:02.073Z,965.9
2018-04-01T00:05:03.338Z,965.9
2018-04-01T00:06:04.589Z,965.9
2018-04-01T00:07:05.907Z,965.9
2018-04-01T00:08:07.232Z,965.9
2018-04-01T00:09:08.499Z,965.9
2018-04-01T00:10:09.762Z,965.8
2018-04-01T00:11:11.014Z,965.9
2018-04-01T00:12:12.318Z,965.9
2018-04-01T00:13:13.577Z,965.8
2018-04-01T00:14:14.807Z,965.9
2018-04-01T00:15:16.119Z,965.9
2018-04-01T00:16:17.296Z,965.7
2018-04-01T00:17:18.568Z,965.9
2018-04-01T00:18:19.827Z,965.9
2018-04-01T00:19:21.117Z,965.9
2018-04-01T00:20:22.343Z,965.8
2018-04-01T00:21:23.553Z,965.9
2018-04-01T00:22:24.873Z,965.9
2018-04-01T00:23:26.207Z,965.9
2018-04-01T00:24:27.448Z,965.9
2018-04-01T00:25:28.732Z,966
2018-04-01T00:26:29.960Z,965.9
2018-04-01T00:27:31.253Z,965.8
2018-04-01T00:28:32.520Z,965.9
2018-04-01T00:29:33.750Z,965.9
2018-04-01T00:30:34.990Z,966
2018-04-01T00:31:36.318Z,966
2018-04-01T00:32:37.622Z,966
2018-04-01T00:33:38.894Z,966
2018-04-01T00:34:40.133Z,966
2018-04-01T00:35:41.361Z,966
2018-04-01T00:36:42.576Z,966.1
2018-04-01T00:37:43.848Z,965.7
2018-04-01T00:38:45.069Z,966.1
2018-04-01T00:39:46.308Z,966.1
2018-04-01T00:40:47.536Z,966.1
2018-04-01T00:41:48.824Z,966.1
2018-04-01T00:42:50.160Z,966
2018-04-01T00:43:51.395Z,966
2018-04-01T00:44:52.640Z,966
2018-04-01T00:45:53.986Z,966
2018-04-01T00:46:55.230Z,966.1
2018-04-01T00:47:56.500Z,966.1
2018-04-01T00:48:57.722Z,966.1
2018-04-01T00:49:59.018Z,966.2
2018-04-01T00:51:00.281Z,966.2
2018-04-01T00:52:01.563Z,966.2
2018-04-01T00:53:02.876Z,966.3
2018-04-01T00:54:04.149Z,966.2
2018-04-01T00:55:05.397Z,966.2
2018-04-01T00:56:07.750Z,966.3
2018-04-01T00:57:09.092Z,966.3
2018-04-01T00:58:10.385Z,966.3
2018-04-01T00:59:11.608Z,966.2
2018-04-01T01:00:12.880Z,966.2
2018-04-01T01:01:14.140Z,966.2
2018-04-01T01:02:15.437Z,966.3
2018-04-01T01:03:16.720Z,966.1
2018-04-01T01:04:17.937Z,966.3
2018-04-01T01:05:19.808Z,966
2018-04-01T01:06:21.834Z,965.9
2018-04-01T01:07:23.189Z,966.1
2018-04-01T01:08:24.480Z,966.1
2018-04-01T01:09:26.101Z,966.1
2018-04-01T01:10:27.382Z,966.1
2018-04-01T01:11:28.592Z,966.1
2018-04-01T01:12:29.835Z,966.1
2018-04-01T01:13:31.112Z,966.1
2018-04-01T01:14:32.361Z,966.1
2018-04-01T01:15:33.670Z,966.1
2018-04-01T01:16:34.905Z,966.1
2018-04-01T01:17:36.185Z,966.1
2018-04-01T01:18:37.451Z,966.2
2018-04-01T01:19:38.675Z,966.2
2018-04-01T01:20:39.907Z,966.2
2018-04-01T01:21:41.136Z,966.2
2018-04-01T01:22:42.400Z,966.3
2018-04-01T01:23:43.681Z,966.3
2018-04-01T01:24:44.952Z,966.2
2018-04-01T01:25:46.184Z,966.3
2018-04-01T01:26:47.467Z,966.2
2018-04-01T01:27:48.692Z,966.3
2018-04-01T01:28:49.963Z,966.2
2018-04-01T01:29:51.202Z,966.2
2018-04-01T01:30:52.454Z,966.2
2018-04-01T01:31:53.670Z,966.3
2018-04-01T01:32:54.907Z,966.4
2018-04-01T01:33:56.191Z,966.1
2018-04-01T01:34:57.411Z,966.3
2018-04-01T01:35:58.736Z,966.3
2018-04-01T01:36:59.979Z,966.3
2018-04-01T01:38:01.235Z,966.2
2018-04-01T01:39:02.854Z,966.2
2018-04-01T01:40:04.091Z,966.3
2018-04-01T01:41:05.326Z,966.3
2018-04-01T01:42:06.584Z,966.1
2018-04-01T01:43:07.803Z,966.3
2018-04-01T01:44:09.034Z,966.1
2018-04-01T01:45:10.324Z,966.3
2018-04-01T01:46:11.557Z,966.3
2018-04-01T01:47:12.783Z,966.2
2018-04-01T01:48:14.015Z,966.2
2018-04-01T01:49:15.312Z,966.1
2018-04-01T01:50:16.562Z,966.1
2018-04-01T01:51:17.808Z,966.1
2018-04-01T01:52:19.065Z,966.1
2018-04-01T01:53:20.438Z,966.1
2018-04-01T01:54:21.761Z,966
2018-04-01T01:55:23.068Z,965.9
2018-04-01T01:56:24.346Z,965.9
2018-04-01T01:57:25.668Z,966
2018-04-01T01:58:27.075Z,966
2018-04-01T01:59:28.392Z,966
2018-04-01T02:00:29.663Z,966.1
2018-04-01T02:01:30.918Z,966.1
2018-04-01T02:02:32.190Z,966.1
2018-04-01T02:03:33.441Z,966.2
2018-04-01T02:04:34.719Z,966.1
2018-04-01T02:05:35.979Z,966.1
2018-04-01T02:06:37.301Z,966.2
2018-04-01T02:07:38.520Z,966.2
2018-04-01T02:08:39.871Z,966.2
2018-04-01T02:09:41.173Z,966.2
2018-04-01T02:10:42.417Z,966.2
2018-04-01T02:11:43.643Z,966.1
2018-04-01T02:12:44.881Z,966.2
2018-04-01T02:13:46.110Z,966.2
2018-04-01T02:14:47.358Z,966.2
2018-04-01T02:15:48.587Z,966.2
2018-04-01T02:16:49.900Z,966.2
2018-04-01T02:17:51.187Z,966.2
2018-04-01T02:18:52.434Z,966.2
2018-04-01T02:19:53.657Z,966.1
2018-04-01T02:20:54.877Z,966.1
2018-04-01T02:21:56.093Z,965.9
2018-04-01T02:22:57.312Z,966.1
2018-04-01T02:23:58.546Z,966.1
2018-04-01T02:24:59.889Z,966.1
2018-04-01T02:26:01.174Z,966.1
2018-04-01T02:27:02.470Z,966.1
2018-04-01T02:28:03.839Z,966.1
2018-04-01T02:29:05.059Z,966
2018-04-01T02:30:06.335Z,966.1
2018-04-01T02:31:07.572Z,966.1
2018-04-01T02:32:08.829Z,966.1
2018-04-01T02:33:10.126Z,966.1
2018-04-01T02:34:11.344Z,966.1
2018-04-01T02:35:12.592Z,966.1
2018-04-01T02:36:13.828Z,966.1
2018-04-01T02:37:17.263Z,966
2018-04-01T02:38:19.028Z,966.1
2018-04-01T02:39:20.257Z,966.1
2018-04-01T02:40:21.582Z,966.1
2018-04-01T02:41:22.830Z,966.1
2018-04-01T02:42:24.082Z,966.1
2018-04-01T02:43:25.368Z,966.2
2018-04-01T02:44:26.579Z,966.1
2018-04-01T02:45:27.913Z,966.2
2018-04-01T02:46:29.134Z,966.2
2018-04-01T02:47:30.373Z,966.2
2018-04-01T02:48:31.625Z,966.2
2018-04-01T02:49:32.892Z,966.1
2018-04-01T02:50:34.195Z,966.1
2018-04-01T02:51:35.432Z,966.1
2018-04-01T02:52:36.657Z,966
2018-04-01T02:53:37.945Z,966.1
2018-04-01T02:54:39.237Z,966.1
2018-04-01T02:55:40.537Z,966.2
2018-04-01T02:56:41.765Z,966.1
2018-04-01T02:57:42.997Z,966.2
2018-04-01T02:58:44.284Z,966.2
2018-04-01T02:59:45.504Z,966.2
2018-04-01T03:00:46.779Z,966.2
2018-04-01T03:01:48.008Z,966.2
2018-04-01T03:02:49.275Z,966.2
2018-04-01T03:03:50.573Z,966.2
2018-04-01T03:04:51.775Z,966.3
2018-04-01T03:05:53.098Z,966.3
2018-04-01T03:06:54.343Z,966.4
2018-04-01T03:07:55.578Z,966.4
2018-04-01T03:08:56.787Z,966.4
2018-04-01T03:09:58.019Z,966.5
2018-04-01T03:10:59.293Z,966.5
2018-04-01T03:12:00.646Z,966.4
2018-04-01T03:13:01.935Z,966.4
2018-04-01T03:14:03.181Z,966.5
2018-04-01T03:15:04.430Z,966.4
2018-04-01T03:16:05.703Z,966.3
2018-04-01T03:17:06.956Z,966.4
2018-04-01T03:18:08.192Z,966.4
2018-04-01T03:19:09.432Z,966.4
2018-04-01T03:20:10.646Z,966.4
2018-04-01T03:21:11.961Z,966.4
2018-04-01T03:22:13.214Z,966.4
2018-04-01T03:23:14.465Z,966.4
2018-04-01T03:24:15.727Z,966.4
2018-04-01T03:25:16.973Z,966.4
2018-04-01T03:26:18.267Z,966.4
2018-04-01T03:27:19.493Z,966.5
2018-04-01T03:28:20.725Z,966.5
2018-04-01T03:29:21.958Z,966.5
2018-04-01T03:30:23.195Z,966.5
2018-04-01T03:31:24.453Z,966.5
2018-04-01T03:32:25.696Z,966.5
2018-04-01T03:33:26.909Z,966.5
2018-04-01T03:34:28.141Z,966.5
2018-04-01T03:35:29.597Z,966.4
2018-04-01T03:36:30.927Z,966.4
2018-04-01T03:37:32.168Z,966.5
2018-04-01T03:38:33.401Z,966.4
2018-04-01T03:39:34.807Z,966.5
2018-04-01T03:40:36.066Z,966.5
2018-04-01T03:41:37.373Z,966.6
2018-04-01T03:42:38.609Z,966.6
2018-04-01T03:43:39.863Z,966.6
2018-04-01T03:44:41.098Z,966.6
2018-04-01T03:45:42.312Z,966.5
2018-04-01T03:46:43.621Z,966.6
2018-04-01T03:47:44.853Z,966.6
2018-04-01T03:48:46.093Z,966.6
2018-04-01T03:49:47.305Z,966.6
2018-04-01T03:50:48.536Z,966.6
2018-04-01T03:51:49.791Z,966.7
2018-04-01T03:52:51.052Z,966.6
2018-04-01T03:53:52.299Z,966.7
2018-04-01T03:54:53.537Z,966.7
2018-04-01T03:55:54.777Z,966.7
2018-04-01T03:56:56.032Z,966.8
2018-04-01T03:57:57.283Z,966.8
2018-04-01T03:58:58.525Z,966.5
2018-04-01T03:59:59.825Z,966.7
2018-04-01T04:01:01.117Z,966.8
2018-04-01T04:02:02.394Z,966.7
2018-04-01T04:03:03.681Z,966.7
2018-04-01T04:04:04.905Z,966.8
2018-04-01T04:05:06.120Z,966.7
2018-04-01T04:06:07.369Z,966.8
2018-04-01T04:07:08.694Z,966.8
2018-04-01T04:08:10.462Z,966.8
2018-04-01T04:09:11.685Z,966.7
2018-04-01T04:10:12.913Z,966.9
2018-04-01T04:11:14.122Z,966.8
2018-04-01T04:12:15.396Z,966.8
2018-04-01T04:13:16.643Z,966.9
2018-04-01T04:14:17.869Z,966.9
2018-04-01T04:15:19.101Z,966.9
2018-04-01T04:16:20.307Z,966.9
2018-04-01T04:17:21.613Z,966.9
2018-04-01T04:18:22.871Z,966.9
2018-04-01T04:19:24.093Z,966.9
2018-04-01T04:20:25.317Z,967
2018-04-01T04:21:26.543Z,967
2018-04-01T04:22:27.905Z,966.9
2018-04-01T04:23:29.196Z,967
2018-04-01T04:24:30.416Z,966.9
2018-04-01T04:25:31.636Z,967
2018-04-01T04:26:32.849Z,967
2018-04-01T04:27:34.141Z,967
2018-04-01T04:28:35.365Z,966.9
2018-04-01T04:29:36.618Z,967
2018-04-01T04:30:37.841Z,967
2018-04-01T04:31:39.105Z,967
2018-04-01T04:32:40.360Z,967
2018-04-01T04:33:41.621Z,966.8
2018-04-01T04:34:42.829Z,967.1
2018-04-01T04:35:44.078Z,967
2018-04-01T04:36:45.314Z,967
2018-04-01T04:37:46.611Z,967
2018-04-01T04:38:47.846Z,967
2018-04-01T04:39:49.059Z,967.1
2018-04-01T04:40:50.324Z,967.1
2018-04-01T04:41:51.579Z,967
2018-04-01T04:42:52.975Z,967.1
2018-04-01T04:43:55.679Z,967.1
2018-04-01T04:44:56.882Z,967
2018-04-01T04:45:58.110Z,967.2
2018-04-01T04:46:59.367Z,967.1
2018-04-01T04:48:00.768Z,967.1
2018-04-01T04:49:02.026Z,967.1
2018-04-01T04:50:03.258Z,967.2
2018-04-01T04:51:04.491Z,967.1
2018-04-01T04:52:05.778Z,967.1
2018-04-01T04:53:07.056Z,967.2
2018-04-01T04:54:08.368Z,967.2
2018-04-01T04:55:09.593Z,967.3
2018-04-01T04:56:10.841Z,967.2
2018-04-01T04:57:12.172Z,967.2
2018-04-01T04:58:13.472Z,967.3
2018-04-01T04:59:14.704Z,967.3
2018-04-01T05:00:15.941Z,967.3
2018-04-01T05:01:27.470Z,967.3
2018-04-01T05:02:28.741Z,967.3
2018-04-01T05:03:30.126Z,967.2
2018-04-01T05:04:31.333Z,967.3
2018-04-01T05:05:32.572Z,967.3
2018-04-01T05:06:33.811Z,967.3
2018-04-01T05:07:35.041Z,967.3
2018-04-01T05:08:36.347Z,967.3
2018-04-01T05:09:37.621Z,967.4
2018-04-01T05:10:38.866Z,967.3
2018-04-01T05:11:40.101Z,967.4
2018-04-01T05:12:41.361Z,967.4
2018-04-01T05:13:42.645Z,967.4
2018-04-01T05:14:43.872Z,967.4
2018-04-01T05:15:45.195Z,967.4
2018-04-01T05:16:46.440Z,967.4
2018-04-01T05:17:47.680Z,967.4
2018-04-01T05:18:48.932Z,967.4
2018-04-01T05:19:50.522Z,967.4
2018-04-01T05:20:51.772Z,967.4
2018-04-01T05:21:52.974Z,967.5
2018-04-01T05:22:54.224Z,967.4
2018-04-01T05:23:55.503Z,967.4
2018-04-01T05:24:56.736Z,967.1
2018-04-01T05:25:57.968Z,967.5
2018-04-01T05:26:59.205Z,967.4
2018-04-01T05:28:00.576Z,967.4
2018-04-01T05:29:02.122Z,967.4
2018-04-01T05:30:03.496Z,967.5
2018-04-01T05:31:04.753Z,967.4
2018-04-01T05:32:06.150Z,967.4
2018-04-01T05:33:07.454Z,967.2
2018-04-01T05:34:08.841Z,967.4
2018-04-01T05:35:10.101Z,967.4
2018-04-01T05:36:11.372Z,967.4
2018-04-01T05:37:12.606Z,967.5
2018-04-01T05:38:13.896Z,967.4
2018-04-01T05:39:15.172Z,967.4
2018-04-01T05:40:16.427Z,967.5
2018-04-01T05:41:17.669Z,967.5
2018-04-01T05:42:18.916Z,967.5
2018-04-01T05:43:20.177Z,967.4
2018-04-01T05:44:21.766Z,967.5
2018-04-01T05:45:23.011Z,967.5
2018-04-01T05:46:24.242Z,967.5
2018-04-01T05:47:25.493Z,967.5
2018-04-01T05:48:26.709Z,967.5
2018-04-01T05:49:27.995Z,967.5
2018-04-01T05:50:29.228Z,967.5
2018-04-01T05:51:30.522Z,967.5
2018-04-01T05:52:31.784Z,967.5
2018-04-01T05:53:33.086Z,967.5
2018-04-01T05:54:34.397Z,967.6
2018-04-01T05:55:35.687Z,967.6
2018-04-01T05:56:37.007Z,967.7
2018-04-01T05:57:38.233Z,967.7
2018-04-01T05:58:39.475Z,967.7
2018-04-01T05:59:40.798Z,967.8
2018-04-01T06:00:42.027Z,967.8
2018-04-01T06:01:43.311Z,967.8
2018-04-01T06:02:44.546Z,967.9
2018-04-01T06:03:45.838Z,967.9
2018-04-01T06:04:47.099Z,967.9
2018-04-01T06:05:48.318Z,968
2018-04-01T06:06:49.572Z,968
2018-04-01T06:07:50.797Z,968
2018-04-01T06:08:52.024Z,968
2018-04-01T06:09:53.283Z,968
2018-04-01T06:10:54.536Z,968
2018-04-01T06:11:55.775Z,968
2018-04-01T06:12:56.993Z,968
2018-04-01T06:13:58.248Z,968
2018-04-01T06:14:59.673Z,968.1
2018-04-01T06:16:00.968Z,968.1
2018-04-01T06:17:02.320Z,967.9
2018-04-01T06:18:03.601Z,967.9
2018-04-01T06:19:04.870Z,967.9
2018-04-01T06:20:06.160Z,967.8
2018-04-01T06:21:07.423Z,967.9
2018-04-01T06:22:08.663Z,967.8
2018-04-01T06:23:09.920Z,967.9
2018-04-01T06:24:11.207Z,967.9
2018-04-01T06:25:12.507Z,967.7
2018-04-01T06:26:13.776Z,967.8
2018-04-01T06:27:15.018Z,967.9
2018-04-01T06:28:16.298Z,967.9
2018-04-01T06:29:17.605Z,967.9
2018-04-01T06:30:18.913Z,967.8
2018-04-01T06:31:20.154Z,967.9
2018-04-01T06:32:21.410Z,967.9
2018-04-01T06:33:22.699Z,967.7
2018-04-01T06:34:23.957Z,967.9
2018-04-01T06:35:25.256Z,967.9
2018-04-01T06:36:26.502Z,967.8
2018-04-01T06:37:27.846Z,967.8
2018-04-01T06:38:29.140Z,967.9
2018-04-01T06:39:30.380Z,967.9
2018-04-01T06:40:31.691Z,967.9
2018-04-01T06:41:32.990Z,967.9
2018-04-01T06:42:34.324Z,968
2018-04-01T06:43:35.619Z,968
2018-04-01T06:44:36.881Z,968
2018-04-01T06:45:38.183Z,968
2018-04-01T06:46:39.433Z,968
2018-04-01T06:47:40.657Z,968
2018-04-01T06:48:41.938Z,968
2018-04-01T06:49:43.687Z,968
2018-04-01T06:50:44.995Z,968
2018-04-01T06:51:46.227Z,968
2018-04-01T06:52:47.546Z,968
2018-04-01T06:53:48.826Z,968.1
2018-04-01T06:54:50.070Z,968.1
2018-04-01T06:55:51.474Z,968.1
2018-04-01T06:56:52.653Z,968
2018-04-01T06:57:53.879Z,968.1
2018-04-01T06:58:55.158Z,968.1
2018-04-01T06:59:56.431Z,968
2018-04-01T07:00:57.793Z,968.2
2018-04-01T07:01:59.020Z,968.1
2018-04-01T07:03:00.394Z,968.2
2018-04-01T07:04:01.693Z,968.2
2018-04-01T07:05:02.941Z,968.3
2018-04-01T07:06:04.240Z,968.3
2018-04-01T07:07:05.513Z,968.3
2018-04-01T07:08:06.815Z,968.4
2018-04-01T07:09:08.048Z,968.3
2018-04-01T07:10:09.344Z,968.4
2018-04-01T07:11:10.708Z,968.2
2018-04-01T07:12:12.117Z,968.3
2018-04-01T07:13:13.635Z,968.3
2018-04-01T07:14:15.602Z,968.2
2018-04-01T07:15:17.193Z,968.3
2018-04-01T07:16:18.573Z,968.4
2018-04-01T07:17:19.820Z,968.4
2018-04-01T07:18:21.167Z,968.4
2018-04-01T07:19:22.453Z,968.4
2018-04-01T07:20:23.734Z,968.3
2018-04-01T07:21:25.023Z,968.4
2018-04-01T07:22:26.520Z,968.5
2018-04-01T07:23:27.880Z,968.5
2018-04-01T07:24:29.181Z,968.5
2018-04-01T07:25:30.429Z,968.5
2018-04-01T07:26:31.816Z,968.5
2018-04-01T07:27:33.078Z,968.5
2018-04-01T07:28:37.542Z,968.4
2018-04-01T07:29:38.818Z,968.5
2018-04-01T07:30:40.072Z,968.6
2018-04-01T07:31:41.365Z,968.6
2018-04-01T07:32:42.594Z,968.5
2018-04-01T07:33:43.845Z,968.6
2018-04-01T07:34:45.150Z,968.6
2018-04-01T07:35:46.431Z,968.6
2018-04-01T07:36:49.614Z,968.7
2018-04-01T07:37:50.838Z,968.7
2018-04-01T07:38:52.162Z,968.7
2018-04-01T07:39:53.397Z,968.7
2018-04-01T07:40:54.624Z,968.7
2018-04-01T07:41:55.885Z,968.7
2018-04-01T07:42:57.131Z,968.8
2018-04-01T07:43:58.413Z,968.8
2018-04-01T07:44:59.618Z,968.8
2018-04-01T07:46:00.978Z,968.8
2018-04-01T07:47:03.633Z,968.8
2018-04-01T07:48:05.098Z,968.9
2018-04-01T07:49:06.371Z,968.8
2018-04-01T07:50:07.682Z,968.8
2018-04-01T07:51:08.966Z,968.8
2018-04-01T07:52:10.249Z,968.8
2018-04-01T07:53:11.556Z,968.9
2018-04-01T07:54:12.849Z,968.9
2018-04-01T07:55:14.092Z,968.9
2018-04-01T07:56:15.349Z,968.9
2018-04-01T07:57:16.629Z,968.9
2018-04-01T07:58:17.932Z,968.9
2018-04-01T07:59:19.234Z,968.8
2018-04-01T08:00:20.495Z,968.8
2018-04-01T08:01:24.806Z,968.9
2018-04-01T08:02:26.094Z,968.8
2018-04-01T08:03:27.327Z,968.9
2018-04-01T08:04:28.601Z,968.9
2018-04-01T08:05:29.869Z,968.9
2018-04-01T08:06:31.156Z,968.9
2018-04-01T08:07:32.532Z,968.9
2018-04-01T08:08:33.829Z,968.9
2018-04-01T08:09:35.052Z,969
2018-04-01T08:10:36.304Z,969
2018-04-01T08:11:37.568Z,969
2018-04-01T08:12:38.858Z,969
2018-04-01T08:13:40.134Z,969.1
2018-04-01T08:14:41.453Z,969
2018-04-01T08:15:42.757Z,969
2018-04-01T08:16:43.966Z,969.1
2018-04-01T08:17:45.254Z,969
2018-04-01T08:18:46.531Z,969
2018-04-01T08:19:47.769Z,969.1
2018-04-01T08:20:49.037Z,969
2018-04-01T08:21:50.301Z,969.1
2018-04-01T08:22:51.606Z,969.2
2018-04-01T08:23:52.901Z,969.1
2018-04-01T08:24:54.154Z,969.1
2018-04-01T08:25:55.414Z,969
2018-04-01T08:26:56.654Z,969.2
2018-04-01T08:27:57.929Z,969.1
2018-04-01T08:28:59.163Z,969.2
2018-04-01T08:30:00.392Z,969.2
2018-04-01T08:31:01.662Z,969.3
2018-04-01T08:32:03.025Z,969.3
2018-04-01T08:33:04.314Z,969.3
2018-04-01T08:34:05.545Z,969.4
2018-04-01T08:35:06.775Z,969.4
2018-04-01T08:36:08.077Z,969.4
2018-04-01T08:37:09.453Z,969.4
2018-04-01T08:38:11.117Z,969.5
2018-04-01T08:39:12.370Z,969.4
2018-04-01T08:40:13.631Z,969.5
2018-04-01T08:41:14.851Z,969.5
2018-04-01T08:42:16.131Z,969.4
2018-04-01T08:43:17.419Z,969.4
2018-04-01T08:44:18.644Z,969.5
2018-04-01T08:45:19.896Z,969.5
2018-04-01T08:46:26.989Z,969.5
2018-04-01T08:47:28.215Z,969.5
2018-04-01T08:48:29.573Z,969.3
2018-04-01T08:49:30.828Z,969.5
2018-04-01T08:50:32.131Z,969.5
2018-04-01T08:51:33.385Z,969.4
2018-04-01T08:52:34.651Z,969.5
2018-04-01T08:53:36.020Z,969.4
2018-04-01T08:54:37.280Z,969.5
2018-04-01T08:55:38.575Z,969.3
2018-04-01T08:56:39.843Z,969.2
2018-04-01T08:57:41.081Z,969.3
2018-04-01T08:58:42.690Z,969.3
2018-04-01T08:59:43.944Z,969.3
2018-04-01T09:00:45.188Z,969.3
2018-04-01T09:01:46.446Z,969.3
2018-04-01T09:02:47.713Z,969.3
2018-04-01T09:03:49.007Z,969.3
2018-04-01T09:04:50.287Z,969.2
2018-04-01T09:05:51.601Z,969.2
2018-04-01T09:06:53.006Z,969.2
2018-04-01T09:07:54.533Z,969.1
2018-04-01T09:08:55.897Z,969.2
2018-04-01T09:09:57.156Z,969
2018-04-01T09:10:58.448Z,969.2
2018-04-01T09:11:59.691Z,969.2
2018-04-01T09:13:00.960Z,969.2
2018-04-01T09:14:02.401Z,969.2
2018-04-01T09:15:03.876Z,969.1
2018-04-01T09:16:10.434Z,969.2
2018-04-01T09:17:11.807Z,969.2
2018-04-01T09:18:13.161Z,969.2
2018-04-01T09:19:16.815Z,969.2
2018-04-01T09:20:18.089Z,969.2
2018-04-01T09:21:19.315Z,969.2
2018-04-01T09:22:24.189Z,969.2
2018-04-01T09:23:25.461Z,969.3
2018-04-01T09:24:26.779Z,969.3
2018-04-01T09:25:27.998Z,969.3
2018-04-01T09:26:29.294Z,969.3
2018-04-01T09:27:31.890Z,969.3
2018-04-01T09:28:33.167Z,969.3
2018-04-01T09:29:34.531Z,969.1
2018-04-01T09:30:35.775Z,969.3
2018-04-01T09:31:37.028Z,969.3
2018-04-01T09:32:38.304Z,969.3
2018-04-01T09:33:39.581Z,969.3
2018-04-01T09:34:41.042Z,969.3
2018-04-01T09:35:42.472Z,969.3
2018-04-01T09:36:43.775Z,969.3
2018-04-01T09:37:45.075Z,969.4
2018-04-01T09:38:46.367Z,969.2
2018-04-01T09:39:47.674Z,969.4
2018-04-01T09:40:48.933Z,969.5
2018-04-01T09:41:50.226Z,969.4
2018-04-01T09:42:51.466Z,969.5
2018-04-01T09:43:52.804Z,969.4
2018-04-01T09:44:54.120Z,969.4
2018-04-01T09:45:55.536Z,969.4
2018-04-01T09:46:56.768Z,969.4
2018-04-01T09:47:58.073Z,969.5
2018-04-01T09:48:59.553Z,969.5
2018-04-01T09:50:01.265Z,969.5
2018-04-01T09:51:02.534Z,969.4
2018-04-01T09:52:03.760Z,969.5
2018-04-01T09:53:05.055Z,969.5
2018-04-01T09:54:06.320Z,969.4
2018-04-01T09:55:07.634Z,969.6
2018-04-01T09:56:08.928Z,969.6
2018-04-01T09:57:10.173Z,969.5
2018-04-01T09:58:11.482Z,969.6
2018-04-01T09:59:12.739Z,969.7
2018-04-01T10:00:14.035Z,969.7
2018-04-01T10:01:15.278Z,969.7
2018-04-01T10:02:16.642Z,969.7
2018-04-01T10:03:17.970Z,969.6
2018-04-01T10:04:19.225Z,969.5
2018-04-01T10:05:20.620Z,969.6
2018-04-01T10:06:21.964Z,969.7
2018-04-01T10:07:23.247Z,969.7
2018-04-01T10:08:24.552Z,969.7
2018-04-01T10:09:25.818Z,969.7
2018-04-01T10:10:27.128Z,969.7
2018-04-01T10:11:28.368Z,969.8
2018-04-01T10:12:29.642Z,969.8
2018-04-01T10:13:30.873Z,969.7
2018-04-01T10:14:32.200Z,969.8
2018-04-01T10:15:33.466Z,969.8
2018-04-01T10:16:34.770Z,969.7
2018-04-01T10:17:36.049Z,969.8
2018-04-01T10:18:37.332Z,969.8
2018-04-01T10:19:38.681Z,969.8
2018-04-01T10:20:40.003Z,969.9
2018-04-01T10:21:41.385Z,969.8
2018-04-01T10:22:42.762Z,969.8
2018-04-01T10:23:44.070Z,969.8
2018-04-01T10:24:45.397Z,969.8
2018-04-01T10:25:46.679Z,969.8
2018-04-01T10:26:47.918Z,969.8
2018-04-01T10:27:49.160Z,969.7
2018-04-01T10:28:50.460Z,969.8
2018-04-01T10:29:51.997Z,969.6
2018-04-01T10:30:53.406Z,969.8
2018-04-01T10:31:54.652Z,969.9
2018-04-01T10:32:55.911Z,969.9
2018-04-01T10:33:57.146Z,969.9
2018-04-01T10:34:58.427Z,969.9
2018-04-01T10:35:59.761Z,969.9
2018-04-01T10:37:01.183Z,969.9
2018-04-01T10:38:02.499Z,969.9
2018-04-01T10:39:03.800Z,969.9
2018-04-01T10:40:05.050Z,969.9
2018-04-01T10:41:06.332Z,969.9
2018-04-01T10:42:07.661Z,969.8
2018-04-01T10:43:09.016Z,969.9
2018-04-01T10:44:10.281Z,969.9
2018-04-01T10:45:11.522Z,970
2018-04-01T10:46:13.572Z,970
2018-04-01T10:47:22.988Z,970
2018-04-01T10:48:24.234Z,970
2018-04-01T10:49:25.530Z,970
2018-04-01T10:50:26.754Z,970
2018-04-01T10:51:28.065Z,970
2018-04-01T10:52:35.398Z,970
2018-04-01T10:53:36.710Z,969.9
2018-04-01T10:54:37.994Z,970
2018-04-01T10:55:39.285Z,970
2018-04-01T10:56:40.604Z,970
2018-04-01T10:57:41.901Z,970
2018-04-01T10:58:43.238Z,970
2018-04-01T10:59:44.830Z,970.1
2018-04-01T11:00:46.109Z,970
2018-04-01T11:01:47.463Z,969.9
2018-04-01T11:02:48.814Z,970
2018-04-01T11:03:50.076Z,970.1
2018-04-01T11:04:51.312Z,970.1
2018-04-01T11:05:52.576Z,970.1
2018-04-01T11:06:53.935Z,970.1
2018-04-01T11:07:55.217Z,970.1
2018-04-01T11:08:56.529Z,970.2
2018-04-01T11:09:57.764Z,970.2
2018-04-01T11:10:59.030Z,970.1
2018-04-01T11:12:00.345Z,970.2
2018-04-01T11:13:01.682Z,970.2
2018-04-01T11:14:03.032Z,970.3
2018-04-01T11:15:04.353Z,970.1
2018-04-01T11:16:05.740Z,970.1
2018-04-01T11:17:07.448Z,970.3
2018-04-01T11:18:08.802Z,970.3
2018-04-01T11:19:10.082Z,970.3
2018-04-01T11:20:11.387Z,970.3
2018-04-01T11:21:12.724Z,970.3
2018-04-01T11:22:14.057Z,970.4
2018-04-01T11:23:15.302Z,970.5
2018-04-01T11:24:16.547Z,970.6
2018-04-01T11:25:17.812Z,970.6
2018-04-01T11:26:19.109Z,970.6
2018-04-01T11:27:20.421Z,970.7
2018-04-01T11:28:21.696Z,970.7
2018-04-01T11:29:23.006Z,970.8
2018-04-01T11:30:24.278Z,970.8
2018-04-01T11:31:26.759Z,970.7
2018-04-01T11:32:28.154Z,970.7
2018-04-01T11:33:29.461Z,970.9
2018-04-01T11:34:30.722Z,970.8
2018-04-01T11:35:32.009Z,970.8
2018-04-01T11:36:33.364Z,970.8
2018-04-01T11:37:34.690Z,970.9
2018-04-01T11:38:35.948Z,970.8
2018-04-01T11:39:37.226Z,970.9
2018-04-01T11:40:38.553Z,970.7
2018-04-01T11:41:39.982Z,970.8
2018-04-01T11:42:41.301Z,970.8
2018-04-01T11:43:42.807Z,970.8
2018-04-01T11:44:44.117Z,970.7
2018-04-01T11:45:45.348Z,970.7
2018-04-01T11:46:46.617Z,970.7
2018-04-01T11:47:47.892Z,970.7
2018-04-01T11:48:49.420Z,970.7
2018-04-01T11:49:50.678Z,970.7
2018-04-01T11:50:51.931Z,970.6
2018-04-01T11:51:53.480Z,970.6
2018-04-01T11:52:54.803Z,970.6
2018-04-01T11:53:56.046Z,970.7
2018-04-01T11:54:57.457Z,970.7
2018-04-01T11:55:58.726Z,970.7
2018-04-01T11:56:59.973Z,970.7
2018-04-01T11:58:01.330Z,970.5
2018-04-01T11:59:02.878Z,970.5
2018-04-01T12:00:04.150Z,970.5
2018-04-01T12:01:05.448Z,970.7
2018-04-01T12:02:06.828Z,970.7
2018-04-01T12:03:12.256Z,970.7
2018-04-01T12:04:13.592Z,970.7
2018-04-01T12:05:14.871Z,970.8
2018-04-01T12:06:16.261Z,970.8
2018-04-01T12:07:17.530Z,970.7
2018-04-01T12:08:18.834Z,970.7
2018-04-01T12:09:20.113Z,970.7
2018-04-01T12:10:21.361Z,970.7
2018-04-01T12:11:22.659Z,970.6
2018-04-01T12:12:23.996Z,970.6
2018-04-01T12:13:25.325Z,970.6
2018-04-01T12:14:26.569Z,970.6
2018-04-01T12:15:27.839Z,970.5
2018-04-01T12:16:29.098Z,970.6
2018-04-01T12:17:30.329Z,970.6
2018-04-01T12:18:31.672Z,970.6
2018-04-01T12:19:33.950Z,970.7
2018-04-01T12:20:35.236Z,970.6
2018-04-01T12:21:36.480Z,970.6
2018-04-01T12:22:37.793Z,970.6
2018-04-01T12:23:39.288Z,970.6
2018-04-01T12:24:40.562Z,970.6
2018-04-01T12:25:41.820Z,970.7
2018-04-01T12:26:43.211Z,970.6
2018-04-01T12:27:44.448Z,970.5
2018-04-01T12:28:45.930Z,970.7
2018-04-01T12:29:47.212Z,970.7
2018-04-01T12:30:48.512Z,970.7
2018-04-01T12:31:49.801Z,970.7
2018-04-01T12:32:51.097Z,970.8
2018-04-01T12:33:52.468Z,970.6
2018-04-01T12:34:53.812Z,970.8
2018-04-01T12:35:55.132Z,970.8
2018-04-01T12:36:56.373Z,970.7
2018-04-01T12:37:57.914Z,970.7
2018-04-01T12:38:59.350Z,970.7
2018-04-01T12:40:00.604Z,970.7
2018-04-01T12:41:01.861Z,970.7
2018-04-01T12:42:03.196Z,970.7
2018-04-01T12:43:04.417Z,970.5
2018-04-01T12:44:05.755Z,970.7
2018-04-01T12:45:07.084Z,970.8
2018-04-01T12:46:08.367Z,970.8
2018-04-01T12:47:09.938Z,970.9
2018-04-01T12:48:11.904Z,970.9
2018-04-01T12:49:13.245Z,971
2018-04-01T12:50:14.526Z,971
2018-04-01T12:51:15.818Z,971
2018-04-01T12:52:17.077Z,971
2018-04-01T12:53:18.392Z,970.9
2018-04-01T12:54:19.814Z,970.9
2018-04-01T12:55:21.091Z,970.8
2018-04-01T12:56:22.404Z,970.8
2018-04-01T12:57:23.703Z,970.8
2018-04-01T12:58:24.960Z,970.8
2018-04-01T12:59:26.332Z,970.8
2018-04-01T13:00:27.624Z,970.8
2018-04-01T13:01:28.894Z,970.8
2018-04-01T13:02:30.160Z,970.8
2018-04-01T13:03:31.377Z,970.8
2018-04-01T13:04:32.698Z,970.8
2018-04-01T13:05:33.966Z,970.9
2018-04-01T13:06:35.329Z,970.9
2018-04-01T13:07:36.610Z,970.8
2018-04-01T13:08:37.879Z,970.9
2018-04-01T13:09:39.212Z,970.9
2018-04-01T13:10:40.498Z,970.9
2018-04-01T13:11:42.153Z,970.9
2018-04-01T13:12:43.522Z,970.9
2018-04-01T13:13:44.942Z,970.8
2018-04-01T13:14:46.267Z,970.9
2018-04-01T13:15:47.587Z,971
2018-04-01T13:16:48.873Z,970.9